Archie, Missouri
Current Conditions -  °F | °C
As of 11:53 PM on Thursday 30 Oct 2014 (Local Time) from KOJC Reporting Station
Clear Clear  
Wind Chill: 52°   Ceiling: Unl
Heat Index: 52°   Visibility: 10mi
Dew Point: 40°   Wind: 15mph
Humidity: 63%   Direction: 350°N
Pressure: 30.2"   Gusts: 22mph
Location:  38.48°N, 94.35°W
Report Text: KOJC 310453Z AUTO 35013G19KT 10SM CLR 11/04 A3020 RMK AO2 PK WND 35026/0419 SLP223 T01110044
Loading
Personal Weather Stations






























Interactive Weather Map
Tropical Storm Tracking
New forecast layout! Learn more

10-Day Weather Forecast

Advertisements
Track Severe Weather on mobile